Flight Track Log - Related Links

Times and Time Zones

All times are in EDT time to prevent confusion due to time zone crossing. See the N860BA flight status page for this flight to view local times or setup timezone preferences in your user account.

Time Position Orientation Groundspeed Altitude Reporting Facility
EDT Latitude Longitude Course Direction KTS MPH feet Rate Location/Type
Thu 08:33:41 PM 41.0500 -73.7000 270° West 160 184 1,100  Level New York TRACON
Thu 08:34:41 PM 41.0500 -73.7500 270° West 212 244 4,000 2,650 Climbing New York TRACON
Thu 08:35:41 PM 41.0333 -73.8333 255° West 259 298 6,400 2,762 Climbing New York TRACON
Thu 08:36:47 PM 40.9833 -73.9167 232° Southwest 281 323 9,800 2,474 Climbing New York TRACON
Thu 08:37:35 PM 40.9667 -74.0000 255° West 323 372 11,100 2,474 Climbing New York TRACON
Thu 08:38:41 PM 40.9333 -74.1333 252° West 335 386 14,500 1,857 Climbing New York TRACON
Thu 08:39:41 PM 40.8833 -74.2500 240° Southwest 342 394 15,000 1,250 Climbing New York TRACON
Thu 08:40:41 PM 40.8333 -74.3500 237° Southwest 360 414 17,000 1,050 Climbing New York TRACON
Thu 08:41:41 PM 40.7333 -74.4000 201° Southwest 367 422 17,100 50 Climbing New York TRACON
Thu 08:42:41 PM 40.7667 -74.5000 294° West 310 357 17,100  Level New York TRACON
Thu 08:43:41 PM 40.8333 -74.5833 317° Northwest 308 354 17,100  Level New York TRACON
Thu 08:44:20 PM 40.8542 -74.6475 293° West 315 362 17,100  Level New York Center
Thu 08:45:20 PM 40.8278 -74.7558 252° West 340 391 17,100  Level New York Center
Thu 08:46:20 PM 40.7781 -74.8678 240° Southwest 340 391 17,100 350 Level New York Center
Thu 08:47:20 PM 40.7283 -74.9772 239° Southwest 372 428 17,800 900 Climbing New York Center
Thu 08:48:20 PM 40.6694 -75.1050 239° Southwest 400 460 18,900 1,200 Climbing New York Center
Thu 08:49:20 PM 40.6036 -75.2539 240° Southwest 419 482 20,200 1,350 Climbing New York Center
Thu 08:50:20 PM 40.5419 -75.3892 239° Southwest 430 495 21,600 1,500 Climbing New York Center
Thu 08:51:20 PM 40.4783 -75.5267 239° Southwest 435 501 23,200 1,600 Climbing New York Center
Thu 08:52:20 PM 40.4164 -75.6614 239° Southwest 435 501 24,800 1,600 Climbing New York Center
Thu 08:53:20 PM 40.3547 -75.7933 239° Southwest 435 501 26,400 1,450 Climbing New York Center
Thu 08:54:20 PM 40.2903 -75.9303 238° Southwest 440 506 27,700 1,200 Climbing New York Center
Thu 08:55:20 PM 40.2261 -76.0667 238° Southwest 440 506 28,800 950 Climbing New York Center
Thu 08:56:20 PM 40.1703 -76.1903 239° Southwest 440 506 29,600 750 Climbing New York Center
Thu 08:57:20 PM 40.0944 -76.3444 237° Southwest 445 512 30,300 650 Climbing New York Center
Thu 08:58:20 PM 40.0289 -76.4911 240° Southwest 462 532 30,900 550 Climbing New York Center
Thu 08:59:20 PM 39.9592 -76.6369 238° Southwest 467 537 31,400 550 Climbing New York Center
Thu 09:00:20 PM 39.8911 -76.7883 240° Southwest 472 543 32,000 526 Climbing New York Center
Thu 09:02:34 PM 39.7353 -77.1106 238° Southwest 476 548 33,100 490 Climbing Washington Center
Thu 09:03:36 PM 39.6667 -77.2575 239° Southwest 481 554 33,600 555 Climbing Washington Center
Thu 09:04:33 PM 39.5958 -77.4067 238° Southwest 481 554 34,200 559 Climbing Washington Center
Thu 09:05:34 PM 39.5269 -77.5503 238° Southwest 481 554 34,700 496 Climbing Washington Center
Thu 09:06:34 PM 39.4597 -77.6961 239° Southwest 481 554 35,200 555 Climbing Washington Center
Thu 09:07:33 PM 39.3883 -77.8444 238° Southwest 488 562 35,800 555 Climbing Washington Center
Thu 09:08:33 PM 39.3272 -77.9928 242° Southwest 483 556 36,300 545 Climbing Washington Center
Thu 09:09:34 PM 39.2700 -78.1411 244° Southwest 471 542 36,900 545 Climbing Washington Center
Thu 09:10:34 PM 39.2106 -78.2892 243° Southwest 466 536 37,400 496 Climbing Washington Center
Thu 09:11:35 PM 39.1531 -78.4314 242° Southwest 460 529 37,900 303 Climbing Washington Center
Thu 09:12:33 PM 39.0953 -78.5764 243° Southwest 460 529 38,000 51 Climbing Washington Center
Thu 09:13:33 PM 39.0353 -78.7208 242° Southwest 455 524 38,000  Level Washington Center
Thu 09:14:34 PM 38.9750 -78.8678 242° Southwest 460 529 38,000  Level Washington Center
Thu 09:15:35 PM 38.9147 -79.0172 243° Southwest 460 529 38,000  Level Washington Center
Thu 09:16:33 PM 38.8542 -79.1664 243° Southwest 465 535 38,000  Level Washington Center
Thu 09:17:33 PM 38.8242 -79.3222 256° West 447 514 38,000  Level Washington Center
Thu 09:18:34 PM 38.8153 -79.4789 266° West 447 514 38,000  Level Washington Center
Thu 09:19:34 PM 38.8081 -79.6278 266° West 454 522 38,000  Level Washington Center
Thu 09:21:58 PM 38.7753 -80.0128 264° West 456 525 38,000  Level Indianapolis Center
Thu 09:23:00 PM 38.7633 -80.1744 265° West 455 524 38,000  Level Indianapolis Center
Thu 09:24:01 PM 38.7508 -80.3372 264° West 458 527 38,000  Level Indianapolis Center
Thu 09:25:02 PM 38.7386 -80.4992 265° West 457 526 38,000  Level Indianapolis Center
Thu 09:26:04 PM 38.7253 -80.6636 264° West 463 533 38,000  Level Indianapolis Center
Thu 09:27:05 PM 38.7083 -80.8606 264° West 465 535 38,000  Level Indianapolis Center
Thu 09:28:07 PM 38.6944 -81.0264 264° West 467 537 38,000  Level Indianapolis Center
Thu 09:29:08 PM 38.6803 -81.1919 264° West 468 539 38,000  Level Indianapolis Center
Thu 09:30:10 PM 38.6656 -81.3581 264° West 468 539 38,000  Level Indianapolis Center
Thu 09:31:11 PM 38.6525 -81.5286 264° West 472 543 38,000  Level Indianapolis Center
Thu 09:32:12 PM 38.6369 -81.6967 263° West 474 545 38,000  Level Indianapolis Center
Thu 09:33:14 PM 38.6206 -81.8781 263° West 483 556 38,000  Level Indianapolis Center
Thu 09:34:15 PM 38.6047 -82.0450 263° West 475 547 38,000  Level Indianapolis Center
Thu 09:36:18 PM 38.5736 -82.3817 263° West 477 549 38,000  Level Indianapolis Center
Thu 09:37:19 PM 38.5553 -82.5650 263° West 479 551 38,000  Level Indianapolis Center
Thu 09:38:21 PM 38.5389 -82.7339 263° West 480 552 38,000  Level Indianapolis Center
Thu 09:39:22 PM 38.5214 -82.9011 262° West 478 550 38,000  Level Indianapolis Center
Thu 09:40:24 PM 38.5044 -83.0697 263° West 479 551 38,000  Level Indianapolis Center
Thu 09:41:25 PM 38.4872 -83.2364 263° West 476 548 38,000  Level Indianapolis Center
Thu 09:42:27 PM 38.4689 -83.4031 262° West 475 547 38,000  Level Indianapolis Center
Thu 09:43:28 PM 38.4333 -83.5953 257° West 478 550 38,000  Level Indianapolis Center
Thu 09:44:29 PM 38.4044 -83.7603 257° West 477 549 38,000  Level Indianapolis Center
Thu 09:45:31 PM 38.3747 -83.9244 257° West 476 548 38,000  Level Indianapolis Center
Thu 09:46:32 PM 38.3450 -84.0875 257° West 474 545 38,000 49 Level Indianapolis Center
Thu 09:47:34 PM 38.3150 -84.2514 257° West 474 545 38,100 488 Climbing Indianapolis Center
Thu 09:48:35 PM 38.2842 -84.4133 256° West 472 543 39,000 885 Climbing Indianapolis Center
Thu 09:49:36 PM 38.2561 -84.5694 257° West 458 527 39,900 488 Climbing Indianapolis Center
Thu 09:50:38 PM 38.2264 -84.7264 256° West 458 527 40,000 49 Climbing Indianapolis Center
Thu 09:51:39 PM 38.1919 -84.9133 257° West 464 534 40,000  Level Indianapolis Center
Thu 09:52:41 PM 38.1600 -85.0750 256° West 470 541 40,000  Level Indianapolis Center
Thu 09:53:42 PM 38.1331 -85.2222 257° West 465 535 40,000  Level Indianapolis Center
Thu 09:54:43 PM 38.1011 -85.3836 256° West 468 539 40,000  Level Indianapolis Center
Thu 09:55:45 PM 38.0700 -85.5431 256° West 466 536 40,000  Level Indianapolis Center
Thu 09:56:46 PM 38.0406 -85.7003 257° West 460 529 40,000  Level Indianapolis Center
Thu 09:57:47 PM 38.0094 -85.8586 256° West 460 529 40,000  Level Indianapolis Center
Thu 09:58:48 PM 37.9781 -86.0169 256° West 461 531 40,000  Level Indianapolis Center
Thu 09:59:50 PM 37.9406 -86.2042 256° West 457 526 40,000  Level Indianapolis Center
Thu 10:00:51 PM 37.9083 -86.3597 255° West 456 525 40,000  Level Indianapolis Center
Thu 10:01:52 PM 37.8767 -86.5161 256° West 455 524 40,000  Level Indianapolis Center
Thu 10:02:54 PM 37.8439 -86.6725 255° West 457 526 40,000  Level Indianapolis Center
Thu 10:03:55 PM 37.8122 -86.8286 256° West 454 522 40,000  Level Indianapolis Center
Thu 10:04:56 PM 37.7803 -86.9831 255° West 452 520 40,000  Level Indianapolis Center
Thu 10:05:57 PM 37.7481 -87.1375 255° West 450 518 40,000  Level Indianapolis Center
Thu 10:06:59 PM 37.7153 -87.2942 255° West 450 518 40,000  Level Indianapolis Center
Thu 10:08:00 PM 37.6828 -87.4475 255° West 449 517 40,000  Level Indianapolis Center
Thu 10:09:01 PM 37.6500 -87.5994 255° West 447 514 40,000  Level Indianapolis Center
Thu 10:10:02 PM 37.6175 -87.7517 255° West 446 513 40,000  Level Indianapolis Center
Thu 10:11:03 PM 37.5844 -87.9025 255° West 444 511 40,000  Level Indianapolis Center
Thu 10:12:05 PM 37.5517 -88.0550 255° West 448 516 40,000  Level Indianapolis Center
Thu 10:13:06 PM 37.5181 -88.2058 254° West 445 512 40,000  Level Indianapolis Center
Thu 10:14:07 PM 37.4856 -88.3522 254° West 443 510 40,000  Level Indianapolis Center
Thu 10:15:08 PM 37.4511 -88.5047 254° West 442 509 40,000  Level Indianapolis Center
Thu 10:16:09 PM 37.4200 -88.6483 255° West 439 505 40,000  Level Indianapolis Center
Thu 10:17:10 PM 37.3794 -88.8281 254° West 442 509 40,000  Level Indianapolis Center
Thu 10:18:11 PM 37.3450 -88.9756 254° West 440 506 40,000  Level Indianapolis Center
Thu 10:19:12 PM 37.3117 -89.1228 254° West 439 505 40,000  Level Indianapolis Center
Thu 10:20:13 PM 37.2772 -89.2706 254° West 439 505 40,000  Level Indianapolis Center
Thu 10:21:28 PM 37.2389 -89.4475 255° West 439 505 40,000  Level Memphis Center
Thu 10:22:28 PM 37.2044 -89.5964 254° West 439 505 40,000  Level Memphis Center
Thu 10:23:28 PM 37.1700 -89.7425 254° West 439 505 40,000  Level Memphis Center
Thu 10:24:28 PM 37.1353 -89.8886 253° West 439 505 40,000  Level Memphis Center
Thu 10:25:28 PM 37.1003 -90.0317 253° West 439 505 40,000  Level Memphis Center
Thu 10:26:28 PM 37.0650 -90.1800 253° West 439 505 40,000  Level Memphis Center
Thu 10:27:28 PM 37.0297 -90.3258 253° West 439 505 40,000  Level Memphis Center
Thu 10:28:28 PM 36.9944 -90.4686 253° West 439 505 40,000  Level Memphis Center
Thu 10:29:28 PM 36.9586 -90.6164 253° West 439 505 40,000  Level Memphis Center
Thu 10:30:28 PM 36.9208 -90.7592 252° West 439 505 40,000  Level Memphis Center
Thu 10:31:28 PM 36.8850 -90.9042 253° West 439 505 40,000  Level Memphis Center
Thu 10:32:28 PM 36.8489 -91.0492 253° West 439 505 40,000  Level Memphis Center
Thu 10:33:28 PM 36.8125 -91.1992 253° West 429 494 40,000  Level Memphis Center
Thu 10:34:28 PM 36.7758 -91.3464 253° West 429 494 40,000  Level Memphis Center
Thu 10:35:28 PM 36.7392 -91.4908 252° West 434 499 40,000  Level Memphis Center
Thu 10:36:28 PM 36.7025 -91.6328 252° West 434 499 40,000  Level Memphis Center
Thu 10:37:28 PM 36.6656 -91.7769 252° West 439 505 40,000  Level Memphis Center
Thu 10:38:28 PM 36.6283 -91.9211 252° West 434 499 40,000  Level Memphis Center
Thu 10:39:28 PM 36.5931 -92.0628 253° West 434 499 40,000  Level Memphis Center
Thu 10:40:29 PM 36.5556 -92.2064 252° West 434 499 40,000  Level Memphis Center
Thu 10:41:28 PM 36.5225 -92.3350 252° West 434 499 40,000  Level Memphis Center
Thu 10:42:28 PM 36.4847 -92.4758 252° West 434 499 40,000  Level Memphis Center
Thu 10:43:28 PM 36.4444 -92.6297 252° West 434 499 40,000  Level Memphis Center
Thu 10:44:28 PM 36.4064 -92.7731 252° West 439 505 40,000  Level Memphis Center
Thu 10:45:28 PM 36.3722 -92.9164 254° West 439 505 40,000  Level Memphis Center
Thu 10:46:28 PM 36.3339 -93.0542 251° West 439 505 40,000  Level Memphis Center
Thu 10:47:29 PM 36.2953 -93.1997 252° West 431 496 40,000  Level Memphis Center
Thu 10:48:28 PM 36.2589 -93.3272 251° West 438 504 40,000  Level Memphis Center
Thu 10:49:28 PM 36.2200 -93.4672 251° West 443 510 40,000  Level Memphis Center
Thu 10:50:28 PM 36.1808 -93.6097 251° West 438 504 40,000  Level Memphis Center
Thu 10:51:28 PM 36.1439 -93.7497 252° West 438 504 40,000  Level Memphis Center
Thu 10:52:28 PM 36.1044 -93.8919 251° West 438 504 40,000  Level Memphis Center
Thu 10:53:28 PM 36.0647 -94.0364 251° West 438 504 40,000  Level Memphis Center
Thu 10:54:29 PM 36.0231 -94.1758 250° West 438 504 40,000  Level Memphis Center
Thu 10:55:28 PM 35.9831 -94.3175 251° West 438 504 40,000  Level Memphis Center
Thu 10:56:28 PM 35.9431 -94.4617 251° West 438 504 40,000  Level Memphis Center
Thu 10:58:34 PM 35.8561 -94.7736 251° West 444 511 40,000  Level Fort Worth Center
Thu 10:59:34 PM 35.8153 -94.9183 251° West 449 517 40,000  Level Fort Worth Center
Thu 11:00:34 PM 35.7797 -95.0319 249° West 449 517 40,000  Level Fort Worth Center
Thu 11:01:34 PM 35.7347 -95.1892 251° West 449 517 40,000  Level Fort Worth Center
Thu 11:02:34 PM 35.6933 -95.3308 250° West 449 517 40,000  Level Fort Worth Center
Thu 11:03:34 PM 35.6519 -95.4722 250° West 449 517 40,000  Level Fort Worth Center
Thu 11:04:34 PM 35.6083 -95.6189 250° West 449 517 40,000  Level Fort Worth Center
Thu 11:05:34 PM 35.5664 -95.7600 250° West 449 517 40,000  Level Fort Worth Center
Thu 11:06:34 PM 35.5222 -95.8986 249° West 449 517 40,000  Level Fort Worth Center
Thu 11:07:34 PM 35.4800 -96.0422 250° West 444 511 40,000  Level Fort Worth Center
Thu 11:08:34 PM 35.4378 -96.1881 250° West 444 511 40,000  Level Fort Worth Center
Thu 11:09:34 PM 35.3933 -96.3289 249° West 449 517 40,000  Level Fort Worth Center
Thu 11:10:34 PM 35.3506 -96.4744 250° West 449 517 40,000  Level Fort Worth Center
Thu 11:11:34 PM 35.3056 -96.6147 249° West 449 517 40,000  Level Fort Worth Center
Thu 11:12:34 PM 35.2628 -96.7653 251° West 449 517 40,000  Level Fort Worth Center
Thu 11:13:34 PM 35.2156 -96.9053 248° West 449 517 40,000  Level Fort Worth Center
Thu 11:14:34 PM 35.1700 -97.0528 249° West 449 517 40,000  Level Fort Worth Center
Thu 11:15:34 PM 35.1203 -97.2131 249° West 449 517 40,000  Level Fort Worth Center
Thu 11:16:34 PM 35.0747 -97.3578 249° West 454 522 40,000  Level Fort Worth Center
Thu 11:17:34 PM 35.0286 -97.5072 249° West 460 529 40,000  Level Fort Worth Center
Thu 11:18:34 PM 34.9847 -97.6492 249° West 460 529 40,000  Level Fort Worth Center
Thu 11:19:34 PM 34.9383 -97.7986 249° West 460 529 40,000  Level Fort Worth Center
Thu 11:20:34 PM 34.8942 -97.9425 250° West 466 536 40,000  Level Fort Worth Center
Thu 11:21:34 PM 34.8475 -98.0892 249° West 466 536 40,000  Level Fort Worth Center
Thu 11:22:34 PM 34.8008 -98.2328 248° West 466 536 40,000  Level Fort Worth Center
Thu 11:23:34 PM 34.7517 -98.3789 248° West 466 536 40,000  Level Fort Worth Center
Thu 11:24:34 PM 34.7153 -98.4972 250° West 460 529 40,000  Level Fort Worth Center
Thu 11:25:34 PM 34.6658 -98.6456 248° West 454 522 40,000  Level Fort Worth Center
Thu 11:26:34 PM 34.6119 -98.8139 249° West 465 535 40,000  Level Fort Worth Center
Thu 11:27:34 PM 34.5644 -98.9594 248° West 473 544 40,000  Level Fort Worth Center
Thu 11:28:34 PM 34.5167 -99.1047 248° West 473 544 40,000  Level Fort Worth Center
Thu 11:29:34 PM 34.4689 -99.2397 247° West 449 517 40,000  Level Fort Worth Center
Thu 11:30:34 PM 34.4186 -99.3872 248° West 456 525 40,000  Level Fort Worth Center
Thu 11:31:34 PM 34.3681 -99.5344 247° West 469 540 40,000  Level Fort Worth Center
Thu 11:32:34 PM 34.3283 -99.6667 250° West 469 540 40,000  Level Fort Worth Center
Thu 11:33:34 PM 34.2775 -99.8111 247° West 469 540 40,000  Level Fort Worth Center
Thu 11:34:34 PM 34.2308 -99.9581 249° West 469 540 40,000  Level Fort Worth Center
Thu 11:35:34 PM 34.1800 -100.0997 247° West 469 540 40,000  Level Fort Worth Center
Thu 11:36:34 PM 34.1331 -100.2411 248° West 469 540 40,000  Level Fort Worth Center
Thu 11:37:34 PM 34.0792 -100.3975 247° West 463 533 40,000  Level Fort Worth Center
Thu 11:38:34 PM 34.0322 -100.5311 247° West 469 540 40,000  Level Fort Worth Center
Thu 11:39:34 PM 33.9825 -100.6747 247° West 469 540 40,000  Level Fort Worth Center
Thu 11:40:34 PM 33.9350 -100.8131 248° West 469 540 40,000  Level Fort Worth Center
Thu 11:41:34 PM 33.8831 -100.9561 246° West 469 540 40,000  Level Fort Worth Center
Thu 11:42:34 PM 33.8331 -101.0967 247° West 460 529 40,000  Level Fort Worth Center
Thu 11:43:34 PM 33.7783 -101.2517 247° West 460 529 40,000  Level Fort Worth Center
Thu 11:44:34 PM 33.7328 -101.3769 246° West 465 535 40,000  Level Fort Worth Center
Thu 11:45:34 PM 33.6758 -101.5292 246° West 460 529 40,000  Level Fort Worth Center
Thu 11:46:34 PM 33.6336 -101.6619 249° West 460 529 40,000  Level Fort Worth Center
Thu 11:47:34 PM 33.5831 -101.7992 246° West 466 536 40,000  Level Fort Worth Center
Thu 11:48:34 PM 33.5322 -101.9411 247° West 466 536 40,000  Level Fort Worth Center
Thu 11:49:34 PM 33.4747 -102.0850 244° Southwest 479 551 40,000  Level Fort Worth Center
Thu 11:50:34 PM 33.4186 -102.2389 246° West 463 533 40,000  Level Fort Worth Center
Thu 11:51:34 PM 33.3722 -102.3631 246° West 463 533 40,000  Level Fort Worth Center
Thu 11:52:34 PM 33.3161 -102.5142 246° West 463 533 40,000  Level Fort Worth Center
Thu 11:53:34 PM 33.2753 -102.6408 249° West 463 533 40,000  Level Fort Worth Center
Thu 11:54:34 PM 33.2233 -102.7817 246° West 463 533 40,000  Level Fort Worth Center
Thu 11:55:34 PM 33.1694 -102.9225 245° Southwest 463 533 40,000  Level Fort Worth Center
Thu 11:56:34 PM 33.1194 -103.0583 246° West 463 533 40,000  Level Fort Worth Center
Thu 11:57:34 PM 33.0600 -103.2156 246° West 474 545 40,000  Level Fort Worth Center
Thu 11:58:34 PM 33.0075 -103.3556 246° West 474 545 40,000  Level Fort Worth Center
Thu 11:59:34 PM 32.9531 -103.4956 245° Southwest 468 539 40,000  Level Fort Worth Center
Fri 12:00:44 AM 32.8961 -103.6364 244° Southwest 470 541 40,000  Level Albuquerque Center
Fri 12:01:45 AM 32.8353 -103.7975 246° West 450 518 40,000  Level Albuquerque Center
Fri 12:02:46 AM 32.7797 -103.9389 245° Southwest 465 535 40,000  Level Albuquerque Center
Fri 12:03:47 AM 32.7258 -104.0761 245° Southwest 460 529 40,000  Level Albuquerque Center
Fri 12:04:48 AM 32.6719 -104.2153 245° Southwest 462 532 40,000 -541 Level Albuquerque Center
Fri 12:05:49 AM 32.6050 -104.3617 242° Southwest 467 537 38,900 -1,770 Descending Albuquerque Center
Fri 12:06:50 AM 32.5436 -104.4989 242° Southwest 468 539 36,400 -2,311 Descending Albuquerque Center
Fri 12:07:51 AM 32.4814 -104.6353 242° Southwest 469 540 34,200 -2,390 Descending Albuquerque Center
Fri 12:08:53 AM 32.4194 -104.7731 242° Southwest 470 541 31,500 -2,439 Descending Albuquerque Center
Fri 12:09:54 AM 32.3661 -104.8983 243° Southwest 477 549 29,200 -2,331 Descending Albuquerque Center
Fri 12:10:54 AM 32.3050 -105.0328 242° Southwest 474 545 26,800 -2,628 Descending Albuquerque Center
Fri 12:11:55 AM 32.2322 -105.1939 242° Southwest 471 542 23,900 -2,852 Descending Albuquerque Center
Fri 12:12:56 AM 32.1717 -105.3247 241° Southwest 464 534 21,000 -2,852 Descending Albuquerque Center
Fri 12:13:57 AM 32.1139 -105.4517 242° Southwest 448 516 18,100 -2,705 Descending Albuquerque Center
Fri 12:14:58 AM 32.0569 -105.5736 241° Southwest 431 496 15,500 -2,803 Descending Albuquerque Center
Fri 12:15:59 AM 32.0056 -105.6858 242° Southwest 388 447 12,400 -3,197 Descending Albuquerque Center
Fri 12:17:00 AM 31.9669 -105.7903 246° West 361 415 9,000 -1,721 Descending Albuquerque Center
Fri 12:18:01 AM 31.9372 -105.8781 248° West 294 338 8,900 -49 Descending Albuquerque Center
Fri 12:19:02 AM 31.9075 -105.9672 249° West 288 331 8,900  Level Albuquerque Center
Fri 12:20:03 AM 31.8781 -106.0519 248° West 287 330 8,900 -341 Level Albuquerque Center
Fri 12:21:05 AM 31.8489 -106.1367 248° West 282 325 8,200 -984 Descending Albuquerque Center
Fri 12:22:05 AM 31.8228 -106.2119 248° West 256 295 6,900 -1,438 Descending Albuquerque Center
Fri 12:23:06 AM 31.7969 -106.2858 248° West 195 224 5,300 -1,180 Descending Albuquerque Center
Fri 12:24:07 AM 31.7992 -106.3319 273° West 147 169 4,500 -689 Descending Albuquerque Center
Fri 12:25:08 AM 31.8022 -106.3753 275° West 135 155 3,900 -590 Descending Albuquerque Center
Fri 12:27:00 AM 31.8000 -106.3667 249° West  Level FlightAware Approximate
Fri 12:34:00 AM 31.8072 -106.3764 249° West  Level Estimated
Fri 12:35:00 AM 31.8072 -106.3764 249° West  Level Estimated
Fri 12:36:00 AM 31.8072 -106.3764 249° West  Level Estimated

Login

Don't have an account? Register now (free) for customized features, flight alerts, and more!